sensor_id;sensor_type;location;lat;lon;timestamp;P1;durP1;ratioP1;P2;durP2;ratioP2
55762;SDS011;42162;51.958;5.426;2024-03-08T00:00:13;26.27;;;14.50;;
55762;SDS011;42162;51.958;5.426;2024-03-08T00:02:43;25.35;;;14.13;;
55762;SDS011;42162;51.958;5.426;2024-03-08T00:05:12;29.70;;;15.00;;
55762;SDS011;42162;51.958;5.426;2024-03-08T00:07:40;24.55;;;14.25;;
55762;SDS011;42162;51.958;5.426;2024-03-08T00:10:10;25.17;;;14.75;;
55762;SDS011;42162;51.958;5.426;2024-03-08T00:12:42;25.95;;;14.98;;
55762;SDS011;42162;51.958;5.426;2024-03-08T00:15:15;30.27;;;16.00;;
55762;SDS011;42162;51.958;5.426;2024-03-08T00:17:46;26.40;;;14.90;;
55762;SDS011;42162;51.958;5.426;2024-03-08T00:20:15;25.65;;;15.45;;
55762;SDS011;42162;51.958;5.426;2024-03-08T00:22:45;26.83;;;15.38;;
55762;SDS011;42162;51.958;5.426;2024-03-08T00:25:13;23.92;;;14.32;;
55762;SDS011;42162;51.958;5.426;2024-03-08T00:27:41;24.02;;;14.82;;
55762;SDS011;42162;51.958;5.426;2024-03-08T00:30:12;22.20;;;14.38;;
55762;SDS011;42162;51.958;5.426;2024-03-08T00:32:40;28.45;;;16.17;;
55762;SDS011;42162;51.958;5.426;2024-03-08T00:35:11;24.60;;;14.35;;
55762;SDS011;42162;51.958;5.426;2024-03-08T00:37:39;24.88;;;16.63;;
55762;SDS011;42162;51.958;5.426;2024-03-08T00:40:10;23.23;;;14.40;;
55762;SDS011;42162;51.958;5.426;2024-03-08T00:42:38;22.13;;;15.10;;
55762;SDS011;42162;51.958;5.426;2024-03-08T00:45:07;30.08;;;14.73;;
55762;SDS011;42162;51.958;5.426;2024-03-08T00:47:34;24.45;;;15.55;;
55762;SDS011;42162;51.958;5.426;2024-03-08T00:50:02;26.98;;;15.40;;
55762;SDS011;42162;51.958;5.426;2024-03-08T00:52:32;32.58;;;15.40;;
55762;SDS011;42162;51.958;5.426;2024-03-08T00:55:01;25.40;;;15.27;;
55762;SDS011;42162;51.958;5.426;2024-03-08T00:57:29;26.48;;;15.00;;
55762;SDS011;42162;51.958;5.426;2024-03-08T00:59:59;24.98;;;15.93;;
55762;SDS011;42162;51.958;5.426;2024-03-08T01:02:27;24.75;;;15.25;;
55762;SDS011;42162;51.958;5.426;2024-03-08T01:04:54;26.15;;;14.82;;
55762;SDS011;42162;51.958;5.426;2024-03-08T01:07:21;26.30;;;14.93;;
55762;SDS011;42162;51.958;5.426;2024-03-08T01:09:48;27.80;;;15.30;;
55762;SDS011;42162;51.958;5.426;2024-03-08T01:12:16;27.27;;;15.95;;
55762;SDS011;42162;51.958;5.426;2024-03-08T01:14:43;25.08;;;15.10;;
55762;SDS011;42162;51.958;5.426;2024-03-08T01:17:11;26.77;;;15.32;;
55762;SDS011;42162;51.958;5.426;2024-03-08T01:19:39;27.98;;;14.85;;
55762;SDS011;42162;51.958;5.426;2024-03-08T01:22:07;26.42;;;14.65;;
55762;SDS011;42162;51.958;5.426;2024-03-08T01:24:34;24.33;;;14.82;;
55762;SDS011;42162;51.958;5.426;2024-03-08T01:27:01;25.85;;;15.82;;
55762;SDS011;42162;51.958;5.426;2024-03-08T01:29:29;24.98;;;15.60;;
55762;SDS011;42162;51.958;5.426;2024-03-08T01:31:56;25.48;;;14.63;;
55762;SDS011;42162;51.958;5.426;2024-03-08T01:34:24;27.05;;;14.60;;
55762;SDS011;42162;51.958;5.426;2024-03-08T01:36:51;24.52;;;14.25;;
55762;SDS011;42162;51.958;5.426;2024-03-08T01:39:18;25.70;;;15.23;;
55762;SDS011;42162;51.958;5.426;2024-03-08T01:41:45;25.05;;;15.63;;
55762;SDS011;42162;51.958;5.426;2024-03-08T01:44:12;28.50;;;15.15;;
55762;SDS011;42162;51.958;5.426;2024-03-08T01:46:44;23.60;;;14.25;;
55762;SDS011;42162;51.958;5.426;2024-03-08T01:49:12;23.52;;;14.45;;
55762;SDS011;42162;51.958;5.426;2024-03-08T01:51:41;21.50;;;14.90;;
55762;SDS011;42162;51.958;5.426;2024-03-08T01:54:08;22.55;;;15.65;;
55762;SDS011;42162;51.958;5.426;2024-03-08T01:56:38;23.73;;;14.77;;
55762;SDS011;42162;51.958;5.426;2024-03-08T01:59:05;30.40;;;15.60;;
55762;SDS011;42162;51.958;5.426;2024-03-08T02:01:34;24.13;;;14.55;;
55762;SDS011;42162;51.958;5.426;2024-03-08T02:04:02;25.55;;;15.52;;
55762;SDS011;42162;51.958;5.426;2024-03-08T02:06:29;27.52;;;15.50;;
55762;SDS011;42162;51.958;5.426;2024-03-08T02:08:56;21.35;;;13.30;;
55762;SDS011;42162;51.958;5.426;2024-03-08T02:11:24;37.40;;;15.20;;
55762;SDS011;42162;51.958;5.426;2024-03-08T02:13:51;19.60;;;14.63;;
55762;SDS011;42162;51.958;5.426;2024-03-08T02:16:21;24.45;;;16.00;;
55762;SDS011;42162;51.958;5.426;2024-03-08T02:18:49;22.73;;;14.88;;
55762;SDS011;42162;51.958;5.426;2024-03-08T02:21:17;27.73;;;14.73;;
55762;SDS011;42162;51.958;5.426;2024-03-08T02:23:45;20.40;;;14.75;;
55762;SDS011;42162;51.958;5.426;2024-03-08T02:26:13;24.52;;;15.32;;
55762;SDS011;42162;51.958;5.426;2024-03-08T02:28:41;21.08;;;15.23;;
55762;SDS011;42162;51.958;5.426;2024-03-08T02:31:10;21.83;;;14.55;;
55762;SDS011;42162;51.958;5.426;2024-03-08T02:33:38;21.52;;;14.07;;
55762;SDS011;42162;51.958;5.426;2024-03-08T02:36:05;23.05;;;15.57;;
55762;SDS011;42162;51.958;5.426;2024-03-08T02:38:33;29.05;;;15.68;;
55762;SDS011;42162;51.958;5.426;2024-03-08T02:41:00;24.10;;;15.52;;
55762;SDS011;42162;51.958;5.426;2024-03-08T02:43:29;23.92;;;15.80;;
55762;SDS011;42162;51.958;5.426;2024-03-08T02:45:56;23.05;;;15.45;;
55762;SDS011;42162;51.958;5.426;2024-03-08T02:48:23;23.45;;;16.08;;
55762;SDS011;42162;51.958;5.426;2024-03-08T02:50:51;20.70;;;14.48;;
55762;SDS011;42162;51.958;5.426;2024-03-08T02:53:19;22.40;;;15.20;;
55762;SDS011;42162;51.958;5.426;2024-03-08T02:55:46;24.27;;;16.70;;
55762;SDS011;42162;51.958;5.426;2024-03-08T02:58:13;22.00;;;15.25;;
55762;SDS011;42162;51.958;5.426;2024-03-08T03:00:41;24.15;;;15.07;;
55762;SDS011;42162;51.958;5.426;2024-03-08T03:03:10;21.15;;;14.60;;
55762;SDS011;42162;51.958;5.426;2024-03-08T03:05:37;23.77;;;14.40;;
55762;SDS011;42162;51.958;5.426;2024-03-08T03:08:04;24.02;;;15.70;;
55762;SDS011;42162;51.958;5.426;2024-03-08T03:10:36;22.10;;;14.50;;
55762;SDS011;42162;51.958;5.426;2024-03-08T03:13:06;20.85;;;14.57;;
55762;SDS011;42162;51.958;5.426;2024-03-08T03:15:35;19.90;;;15.75;;
55762;SDS011;42162;51.958;5.426;2024-03-08T03:18:03;21.50;;;14.93;;
55762;SDS011;42162;51.958;5.426;2024-03-08T03:20:38;23.17;;;14.73;;
55762;SDS011;42162;51.958;5.426;2024-03-08T03:23:10;20.85;;;15.48;;
55762;SDS011;42162;51.958;5.426;2024-03-08T03:25:42;21.67;;;15.57;;
55762;SDS011;42162;51.958;5.426;2024-03-08T03:28:10;21.52;;;15.07;;
55762;SDS011;42162;51.958;5.426;2024-03-08T03:30:41;21.63;;;16.00;;
55762;SDS011;42162;51.958;5.426;2024-03-08T03:33:10;27.08;;;16.30;;
55762;SDS011;42162;51.958;5.426;2024-03-08T03:35:39;20.90;;;14.70;;
55762;SDS011;42162;51.958;5.426;2024-03-08T03:38:08;20.33;;;15.20;;
55762;SDS011;42162;51.958;5.426;2024-03-08T03:40:38;22.85;;;15.02;;
55762;SDS011;42162;51.958;5.426;2024-03-08T03:43:07;21.48;;;15.48;;
55762;SDS011;42162;51.958;5.426;2024-03-08T03:45:39;21.85;;;16.20;;
55762;SDS011;42162;51.958;5.426;2024-03-08T03:48:18;26.50;;;16.60;;
55762;SDS011;42162;51.958;5.426;2024-03-08T03:50:45;24.90;;;15.75;;
55762;SDS011;42162;51.958;5.426;2024-03-08T03:53:12;22.52;;;14.93;;
55762;SDS011;42162;51.958;5.426;2024-03-08T03:55:40;21.45;;;15.85;;
55762;SDS011;42162;51.958;5.426;2024-03-08T03:58:08;24.15;;;14.52;;
55762;SDS011;42162;51.958;5.426;2024-03-08T04:00:38;21.88;;;14.98;;
55762;SDS011;42162;51.958;5.426;2024-03-08T04:03:05;19.92;;;15.07;;
55762;SDS011;42162;51.958;5.426;2024-03-08T04:05:34;20.23;;;15.10;;
55762;SDS011;42162;51.958;5.426;2024-03-08T04:08:02;24.25;;;17.05;;
55762;SDS011;42162;51.958;5.426;2024-03-08T04:10:30;23.92;;;15.70;;
55762;SDS011;42162;51.958;5.426;2024-03-08T04:12:57;21.70;;;14.88;;
55762;SDS011;42162;51.958;5.426;2024-03-08T04:15:24;24.13;;;16.35;;
55762;SDS011;42162;51.958;5.426;2024-03-08T04:17:52;25.60;;;16.63;;
55762;SDS011;42162;51.958;5.426;2024-03-08T04:20:20;26.85;;;16.60;;
55762;SDS011;42162;51.958;5.426;2024-03-08T04:22:48;20.30;;;14.60;;
55762;SDS011;42162;51.958;5.426;2024-03-08T04:25:16;23.30;;;14.93;;
55762;SDS011;42162;51.958;5.426;2024-03-08T04:27:44;22.63;;;15.95;;
55762;SDS011;42162;51.958;5.426;2024-03-08T04:30:11;23.63;;;16.95;;
55762;SDS011;42162;51.958;5.426;2024-03-08T04:32:39;24.00;;;17.15;;
55762;SDS011;42162;51.958;5.426;2024-03-08T04:35:08;23.90;;;16.38;;
55762;SDS011;42162;51.958;5.426;2024-03-08T04:37:35;23.27;;;17.20;;
55762;SDS011;42162;51.958;5.426;2024-03-08T04:40:03;24.35;;;16.65;;
55762;SDS011;42162;51.958;5.426;2024-03-08T04:42:31;23.58;;;16.30;;
55762;SDS011;42162;51.958;5.426;2024-03-08T04:45:00;22.52;;;16.25;;
55762;SDS011;42162;51.958;5.426;2024-03-08T04:47:28;21.85;;;17.10;;
55762;SDS011;42162;51.958;5.426;2024-03-08T04:49:55;23.85;;;17.40;;
55762;SDS011;42162;51.958;5.426;2024-03-08T04:52:23;23.52;;;16.13;;
55762;SDS011;42162;51.958;5.426;2024-03-08T04:54:50;24.95;;;17.38;;
55762;SDS011;42162;51.958;5.426;2024-03-08T04:57:18;23.92;;;16.52;;
55762;SDS011;42162;51.958;5.426;2024-03-08T04:59:46;23.50;;;16.75;;
55762;SDS011;42162;51.958;5.426;2024-03-08T05:02:13;23.95;;;18.00;;
55762;SDS011;42162;51.958;5.426;2024-03-08T05:04:40;23.05;;;16.08;;
55762;SDS011;42162;51.958;5.426;2024-03-08T05:07:09;23.50;;;16.65;;
55762;SDS011;42162;51.958;5.426;2024-03-08T05:09:37;23.00;;;16.52;;
55762;SDS011;42162;51.958;5.426;2024-03-08T05:12:04;25.50;;;17.00;;
55762;SDS011;42162;51.958;5.426;2024-03-08T05:14:32;25.92;;;17.38;;
55762;SDS011;42162;51.958;5.426;2024-03-08T05:17:02;23.67;;;16.63;;
55762;SDS011;42162;51.958;5.426;2024-03-08T05:19:29;24.52;;;15.60;;
55762;SDS011;42162;51.958;5.426;2024-03-08T05:22:00;23.92;;;18.60;;
55762;SDS011;42162;51.958;5.426;2024-03-08T05:24:28;24.27;;;17.25;;
55762;SDS011;42162;51.958;5.426;2024-03-08T05:26:57;23.52;;;17.27;;
55762;SDS011;42162;51.958;5.426;2024-03-08T05:29:26;25.60;;;17.38;;
55762;SDS011;42162;51.958;5.426;2024-03-08T05:31:56;23.02;;;18.02;;
55762;SDS011;42162;51.958;5.426;2024-03-08T05:34:25;24.10;;;15.38;;
55762;SDS011;42162;51.958;5.426;2024-03-08T05:36:53;22.33;;;16.23;;
55762;SDS011;42162;51.958;5.426;2024-03-08T05:39:21;24.85;;;16.73;;
55762;SDS011;42162;51.958;5.426;2024-03-08T05:41:49;28.35;;;16.98;;
55762;SDS011;42162;51.958;5.426;2024-03-08T05:44:17;21.20;;;15.93;;
55762;SDS011;42162;51.958;5.426;2024-03-08T05:46:44;24.73;;;17.00;;
55762;SDS011;42162;51.958;5.426;2024-03-08T05:49:14;23.38;;;17.25;;
55762;SDS011;42162;51.958;5.426;2024-03-08T05:51:44;23.38;;;17.83;;
55762;SDS011;42162;51.958;5.426;2024-03-08T05:54:14;22.60;;;16.23;;
55762;SDS011;42162;51.958;5.426;2024-03-08T05:56:45;20.73;;;14.80;;
55762;SDS011;42162;51.958;5.426;2024-03-08T05:59:14;22.60;;;15.75;;
55762;SDS011;42162;51.958;5.426;2024-03-08T06:01:44;27.52;;;17.42;;
55762;SDS011;42162;51.958;5.426;2024-03-08T06:04:12;25.23;;;17.75;;
55762;SDS011;42162;51.958;5.426;2024-03-08T06:06:41;26.02;;;17.15;;
55762;SDS011;42162;51.958;5.426;2024-03-08T06:09:08;24.98;;;17.45;;
55762;SDS011;42162;51.958;5.426;2024-03-08T06:11:42;24.63;;;17.27;;
55762;SDS011;42162;51.958;5.426;2024-03-08T06:14:10;25.63;;;17.13;;
55762;SDS011;42162;51.958;5.426;2024-03-08T06:16:37;25.55;;;17.13;;
55762;SDS011;42162;51.958;5.426;2024-03-08T06:19:05;24.05;;;16.27;;
55762;SDS011;42162;51.958;5.426;2024-03-08T06:21:33;26.25;;;16.65;;
55762;SDS011;42162;51.958;5.426;2024-03-08T06:24:01;23.80;;;17.83;;
55762;SDS011;42162;51.958;5.426;2024-03-08T06:26:29;25.52;;;17.02;;
55762;SDS011;42162;51.958;5.426;2024-03-08T06:28:57;28.90;;;18.25;;
55762;SDS011;42162;51.958;5.426;2024-03-08T06:31:25;22.27;;;16.25;;
55762;SDS011;42162;51.958;5.426;2024-03-08T06:33:53;23.40;;;16.90;;
55762;SDS011;42162;51.958;5.426;2024-03-08T06:36:23;27.42;;;16.70;;
55762;SDS011;42162;51.958;5.426;2024-03-08T06:38:51;26.77;;;16.52;;
55762;SDS011;42162;51.958;5.426;2024-03-08T06:41:19;27.80;;;17.13;;
55762;SDS011;42162;51.958;5.426;2024-03-08T06:43:46;24.15;;;16.40;;
55762;SDS011;42162;51.958;5.426;2024-03-08T06:46:16;25.38;;;17.65;;
55762;SDS011;42162;51.958;5.426;2024-03-08T06:48:43;23.67;;;17.02;;
55762;SDS011;42162;51.958;5.426;2024-03-08T06:51:13;25.63;;;17.10;;
55762;SDS011;42162;51.958;5.426;2024-03-08T06:53:41;25.30;;;17.20;;
55762;SDS011;42162;51.958;5.426;2024-03-08T06:56:09;28.10;;;18.67;;
55762;SDS011;42162;51.958;5.426;2024-03-08T06:58:36;28.00;;;18.33;;
55762;SDS011;42162;51.958;5.426;2024-03-08T07:01:04;27.63;;;18.23;;
55762;SDS011;42162;51.958;5.426;2024-03-08T07:03:35;36.38;;;18.35;;
55762;SDS011;42162;51.958;5.426;2024-03-08T07:06:02;27.13;;;16.23;;
55762;SDS011;42162;51.958;5.426;2024-03-08T07:08:30;26.38;;;17.83;;
55762;SDS011;42162;51.958;5.426;2024-03-08T07:10:57;28.33;;;18.25;;
55762;SDS011;42162;51.958;5.426;2024-03-08T07:13:26;24.27;;;17.30;;
55762;SDS011;42162;51.958;5.426;2024-03-08T07:15:56;27.85;;;16.38;;
55762;SDS011;42162;51.958;5.426;2024-03-08T07:18:23;21.73;;;16.95;;
55762;SDS011;42162;51.958;5.426;2024-03-08T07:20:51;23.50;;;17.63;;
55762;SDS011;42162;51.958;5.426;2024-03-08T07:23:18;23.05;;;16.38;;
55762;SDS011;42162;51.958;5.426;2024-03-08T07:26:04;29.13;;;19.08;;
55762;SDS011;42162;51.958;5.426;2024-03-08T07:28:31;27.50;;;18.17;;
55762;SDS011;42162;51.958;5.426;2024-03-08T07:30:58;24.88;;;16.83;;
55762;SDS011;42162;51.958;5.426;2024-03-08T07:33:52;21.85;;;14.90;;
55762;SDS011;42162;51.958;5.426;2024-03-08T07:36:22;28.10;;;16.27;;
55762;SDS011;42162;51.958;5.426;2024-03-08T07:38:50;24.77;;;17.23;;
55762;SDS011;42162;51.958;5.426;2024-03-08T07:41:17;24.58;;;17.20;;
55762;SDS011;42162;51.958;5.426;2024-03-08T07:43:44;31.38;;;16.25;;
55762;SDS011;42162;51.958;5.426;2024-03-08T07:46:12;25.13;;;16.90;;
55762;SDS011;42162;51.958;5.426;2024-03-08T07:48:40;25.73;;;17.23;;
55762;SDS011;42162;51.958;5.426;2024-03-08T07:51:08;21.63;;;14.57;;
55762;SDS011;42162;51.958;5.426;2024-03-08T07:53:36;24.00;;;16.98;;
55762;SDS011;42162;51.958;5.426;2024-03-08T07:56:05;29.77;;;17.08;;
55762;SDS011;42162;51.958;5.426;2024-03-08T07:58:32;25.23;;;17.40;;
55762;SDS011;42162;51.958;5.426;2024-03-08T08:01:01;28.95;;;17.65;;
55762;SDS011;42162;51.958;5.426;2024-03-08T08:03:29;27.30;;;16.75;;
55762;SDS011;42162;51.958;5.426;2024-03-08T08:05:56;24.15;;;17.02;;
55762;SDS011;42162;51.958;5.426;2024-03-08T08:08:23;26.08;;;17.48;;
55762;SDS011;42162;51.958;5.426;2024-03-08T08:10:53;23.25;;;16.17;;
55762;SDS011;42162;51.958;5.426;2024-03-08T08:13:20;22.08;;;16.05;;
55762;SDS011;42162;51.958;5.426;2024-03-08T08:15:47;24.25;;;16.77;;
55762;SDS011;42162;51.958;5.426;2024-03-08T08:18:14;24.77;;;17.08;;
55762;SDS011;42162;51.958;5.426;2024-03-08T08:20:42;24.40;;;17.42;;
55762;SDS011;42162;51.958;5.426;2024-03-08T08:23:09;24.83;;;16.70;;
55762;SDS011;42162;51.958;5.426;2024-03-08T08:25:37;26.45;;;18.15;;
55762;SDS011;42162;51.958;5.426;2024-03-08T08:28:05;22.58;;;16.52;;
55762;SDS011;42162;51.958;5.426;2024-03-08T08:30:32;25.10;;;18.02;;
55762;SDS011;42162;51.958;5.426;2024-03-08T08:33:03;27.70;;;17.73;;
55762;SDS011;42162;51.958;5.426;2024-03-08T08:35:32;22.95;;;16.02;;
55762;SDS011;42162;51.958;5.426;2024-03-08T08:38:00;27.63;;;18.05;;
55762;SDS011;42162;51.958;5.426;2024-03-08T08:40:28;27.60;;;17.70;;
55762;SDS011;42162;51.958;5.426;2024-03-08T08:42:57;27.35;;;16.63;;
55762;SDS011;42162;51.958;5.426;2024-03-08T08:45:25;24.00;;;17.63;;
55762;SDS011;42162;51.958;5.426;2024-03-08T08:47:54;25.23;;;17.83;;
55762;SDS011;42162;51.958;5.426;2024-03-08T08:50:21;25.25;;;16.40;;
55762;SDS011;42162;51.958;5.426;2024-03-08T08:52:53;26.70;;;17.67;;
55762;SDS011;42162;51.958;5.426;2024-03-08T08:55:21;24.05;;;16.75;;
55762;SDS011;42162;51.958;5.426;2024-03-08T08:57:53;25.33;;;16.40;;
55762;SDS011;42162;51.958;5.426;2024-03-08T09:00:22;23.08;;;15.52;;
55762;SDS011;42162;51.958;5.426;2024-03-08T09:02:54;26.63;;;15.55;;
55762;SDS011;42162;51.958;5.426;2024-03-08T09:05:25;20.77;;;14.55;;
55762;SDS011;42162;51.958;5.426;2024-03-08T09:07:53;26.20;;;14.70;;
55762;SDS011;42162;51.958;5.426;2024-03-08T09:10:20;19.30;;;14.48;;
55762;SDS011;42162;51.958;5.426;2024-03-08T09:12:48;22.08;;;15.07;;
55762;SDS011;42162;51.958;5.426;2024-03-08T09:15:16;20.85;;;15.27;;
55762;SDS011;42162;51.958;5.426;2024-03-08T09:17:47;25.92;;;15.32;;
55762;SDS011;42162;51.958;5.426;2024-03-08T09:20:17;23.15;;;15.23;;
55762;SDS011;42162;51.958;5.426;2024-03-08T09:22:45;19.95;;;14.57;;
55762;SDS011;42162;51.958;5.426;2024-03-08T09:25:13;22.83;;;15.55;;
55762;SDS011;42162;51.958;5.426;2024-03-08T09:27:40;20.17;;;14.27;;
55762;SDS011;42162;51.958;5.426;2024-03-08T09:30:08;20.25;;;14.55;;
55762;SDS011;42162;51.958;5.426;2024-03-08T09:32:39;20.92;;;15.02;;
55762;SDS011;42162;51.958;5.426;2024-03-08T09:35:07;22.10;;;14.07;;
55762;SDS011;42162;51.958;5.426;2024-03-08T09:37:35;23.45;;;15.57;;
55762;SDS011;42162;51.958;5.426;2024-03-08T09:40:03;21.05;;;14.60;;
55762;SDS011;42162;51.958;5.426;2024-03-08T09:42:37;19.05;;;14.05;;
55762;SDS011;42162;51.958;5.426;2024-03-08T09:45:06;22.25;;;14.80;;
55762;SDS011;42162;51.958;5.426;2024-03-08T09:47:39;19.13;;;14.20;;
55762;SDS011;42162;51.958;5.426;2024-03-08T09:50:09;19.02;;;14.65;;
55762;SDS011;42162;51.958;5.426;2024-03-08T09:52:36;24.10;;;16.08;;
55762;SDS011;42162;51.958;5.426;2024-03-08T09:55:04;23.25;;;16.20;;
55762;SDS011;42162;51.958;5.426;2024-03-08T09:57:38;21.88;;;16.95;;
55762;SDS011;42162;51.958;5.426;2024-03-08T10:00:07;23.77;;;16.75;;
55762;SDS011;42162;51.958;5.426;2024-03-08T10:02:51;31.17;;;16.42;;
55762;SDS011;42162;51.958;5.426;2024-03-08T10:05:20;21.25;;;15.07;;
55762;SDS011;42162;51.958;5.426;2024-03-08T10:07:48;26.33;;;15.40;;
55762;SDS011;42162;51.958;5.426;2024-03-08T10:10:16;24.75;;;16.75;;
55762;SDS011;42162;51.958;5.426;2024-03-08T10:12:43;25.85;;;16.23;;
55762;SDS011;42162;51.958;5.426;2024-03-08T10:15:12;24.42;;;17.33;;
55762;SDS011;42162;51.958;5.426;2024-03-08T10:17:41;23.20;;;15.52;;
55762;SDS011;42162;51.958;5.426;2024-03-08T10:20:14;31.27;;;16.58;;
55762;SDS011;42162;51.958;5.426;2024-03-08T10:22:42;21.73;;;15.13;;
55762;SDS011;42162;51.958;5.426;2024-03-08T10:25:23;20.98;;;14.77;;
55762;SDS011;42162;51.958;5.426;2024-03-08T10:27:51;22.45;;;15.70;;
55762;SDS011;42162;51.958;5.426;2024-03-08T10:30:18;21.48;;;15.45;;
55762;SDS011;42162;51.958;5.426;2024-03-08T10:32:47;20.85;;;15.07;;
55762;SDS011;42162;51.958;5.426;2024-03-08T10:35:15;20.60;;;15.60;;
55762;SDS011;42162;51.958;5.426;2024-03-08T10:37:50;21.15;;;14.88;;
55762;SDS011;42162;51.958;5.426;2024-03-08T10:40:32;20.85;;;15.70;;
55762;SDS011;42162;51.958;5.426;2024-03-08T10:43:00;19.25;;;13.82;;
55762;SDS011;42162;51.958;5.426;2024-03-08T10:48:29;23.10;;;14.45;;
55762;SDS011;42162;51.958;5.426;2024-03-08T10:51:05;25.02;;;16.00;;
55762;SDS011;42162;51.958;5.426;2024-03-08T10:53:34;22.58;;;15.80;;
55762;SDS011;42162;51.958;5.426;2024-03-08T10:56:04;20.25;;;14.93;;
55762;SDS011;42162;51.958;5.426;2024-03-08T10:58:31;20.15;;;14.85;;
55762;SDS011;42162;51.958;5.426;2024-03-08T11:01:01;18.92;;;14.68;;
55762;SDS011;42162;51.958;5.426;2024-03-08T11:06:15;23.85;;;14.43;;
55762;SDS011;42162;51.958;5.426;2024-03-08T11:09:02;19.98;;;14.02;;
55762;SDS011;42162;51.958;5.426;2024-03-08T11:11:40;24.90;;;15.95;;
55762;SDS011;42162;51.958;5.426;2024-03-08T11:14:43;18.13;;;13.52;;
55762;SDS011;42162;51.958;5.426;2024-03-08T11:17:26;21.45;;;14.52;;
55762;SDS011;42162;51.958;5.426;2024-03-08T11:20:00;21.10;;;13.82;;
55762;SDS011;42162;51.958;5.426;2024-03-08T11:22:32;18.85;;;12.73;;
55762;SDS011;42162;51.958;5.426;2024-03-08T11:25:08;19.60;;;13.10;;
55762;SDS011;42162;51.958;5.426;2024-03-08T11:27:37;16.52;;;12.35;;
55762;SDS011;42162;51.958;5.426;2024-03-08T11:30:08;18.83;;;13.98;;
55762;SDS011;42162;51.958;5.426;2024-03-08T11:32:44;18.98;;;13.13;;
55762;SDS011;42162;51.958;5.426;2024-03-08T11:35:20;18.48;;;13.88;;
55762;SDS011;42162;51.958;5.426;2024-03-08T11:37:50;19.70;;;13.82;;
55762;SDS011;42162;51.958;5.426;2024-03-08T11:40:18;26.73;;;13.43;;
55762;SDS011;42162;51.958;5.426;2024-03-08T11:42:47;17.98;;;13.50;;
55762;SDS011;42162;51.958;5.426;2024-03-08T11:45:16;24.30;;;13.90;;
55762;SDS011;42162;51.958;5.426;2024-03-08T11:47:44;17.80;;;12.70;;
55762;SDS011;42162;51.958;5.426;2024-03-08T11:50:16;18.35;;;13.27;;
55762;SDS011;42162;51.958;5.426;2024-03-08T11:52:46;20.13;;;12.73;;
55762;SDS011;42162;51.958;5.426;2024-03-08T11:55:13;22.88;;;14.23;;
55762;SDS011;42162;51.958;5.426;2024-03-08T11:57:41;18.63;;;13.38;;
55762;SDS011;42162;51.958;5.426;2024-03-08T12:00:16;20.15;;;14.07;;
55762;SDS011;42162;51.958;5.426;2024-03-08T12:03:06;20.88;;;12.70;;
55762;SDS011;42162;51.958;5.426;2024-03-08T12:05:34;21.67;;;13.13;;
55762;SDS011;42162;51.958;5.426;2024-03-08T12:08:02;18.48;;;12.43;;
55762;SDS011;42162;51.958;5.426;2024-03-08T12:10:32;22.95;;;12.60;;
55762;SDS011;42162;51.958;5.426;2024-03-08T12:13:00;17.38;;;13.07;;
55762;SDS011;42162;51.958;5.426;2024-03-08T12:15:28;19.58;;;12.77;;
55762;SDS011;42162;51.958;5.426;2024-03-08T12:20:28;22.65;;;12.63;;
55762;SDS011;42162;51.958;5.426;2024-03-08T12:22:59;17.42;;;11.75;;
55762;SDS011;42162;51.958;5.426;2024-03-08T12:25:29;22.08;;;11.82;;
55762;SDS011;42162;51.958;5.426;2024-03-08T12:28:08;17.57;;;11.97;;
55762;SDS011;42162;51.958;5.426;2024-03-08T12:30:50;18.77;;;11.60;;
55762;SDS011;42162;51.958;5.426;2024-03-08T12:33:21;29.33;;;12.23;;
55762;SDS011;42162;51.958;5.426;2024-03-08T12:35:52;16.15;;;12.30;;
55762;SDS011;42162;51.958;5.426;2024-03-08T12:38:23;18.10;;;12.82;;
55762;SDS011;42162;51.958;5.426;2024-03-08T12:40:59;19.00;;;13.25;;
55762;SDS011;42162;51.958;5.426;2024-03-08T12:43:28;17.17;;;12.70;;
55762;SDS011;42162;51.958;5.426;2024-03-08T12:45:58;17.98;;;11.93;;
55762;SDS011;42162;51.958;5.426;2024-03-08T12:48:26;17.08;;;12.77;;
55762;SDS011;42162;51.958;5.426;2024-03-08T12:50:53;17.90;;;12.57;;
55762;SDS011;42162;51.958;5.426;2024-03-08T12:53:21;15.43;;;12.13;;
55762;SDS011;42162;51.958;5.426;2024-03-08T12:55:50;17.48;;;11.77;;
55762;SDS011;42162;51.958;5.426;2024-03-08T12:58:17;21.25;;;12.95;;
55762;SDS011;42162;51.958;5.426;2024-03-08T13:00:47;19.08;;;13.50;;
55762;SDS011;42162;51.958;5.426;2024-03-08T13:05:47;19.00;;;13.30;;
55762;SDS011;42162;51.958;5.426;2024-03-08T13:08:16;22.42;;;12.98;;
55762;SDS011;42162;51.958;5.426;2024-03-08T13:10:44;18.73;;;12.50;;
55762;SDS011;42162;51.958;5.426;2024-03-08T13:13:12;19.23;;;12.65;;
55762;SDS011;42162;51.958;5.426;2024-03-08T13:15:44;14.65;;;11.60;;
55762;SDS011;42162;51.958;5.426;2024-03-08T13:18:12;19.42;;;11.88;;
55762;SDS011;42162;51.958;5.426;2024-03-08T13:20:39;19.90;;;12.63;;
55762;SDS011;42162;51.958;5.426;2024-03-08T13:23:13;18.45;;;12.82;;
55762;SDS011;42162;51.958;5.426;2024-03-08T13:25:41;18.42;;;13.10;;
55762;SDS011;42162;51.958;5.426;2024-03-08T13:28:09;16.90;;;12.05;;
55762;SDS011;42162;51.958;5.426;2024-03-08T13:30:37;23.77;;;13.07;;
55762;SDS011;42162;51.958;5.426;2024-03-08T13:33:05;17.83;;;12.75;;
55762;SDS011;42162;51.958;5.426;2024-03-08T13:35:34;19.02;;;13.52;;
55762;SDS011;42162;51.958;5.426;2024-03-08T13:38:02;25.05;;;14.77;;
55762;SDS011;42162;51.958;5.426;2024-03-08T13:40:31;17.65;;;13.85;;
55762;SDS011;42162;51.958;5.426;2024-03-08T13:42:59;24.50;;;14.27;;
55762;SDS011;42162;51.958;5.426;2024-03-08T13:45:28;19.13;;;13.65;;
55762;SDS011;42162;51.958;5.426;2024-03-08T13:47:55;17.50;;;12.57;;
55762;SDS011;42162;51.958;5.426;2024-03-08T13:50:23;17.63;;;12.40;;
55762;SDS011;42162;51.958;5.426;2024-03-08T13:52:53;19.35;;;12.35;;
55762;SDS011;42162;51.958;5.426;2024-03-08T13:55:23;17.48;;;12.50;;
55762;SDS011;42162;51.958;5.426;2024-03-08T13:57:54;18.25;;;12.90;;
55762;SDS011;42162;51.958;5.426;2024-03-08T14:00:24;17.83;;;13.00;;
55762;SDS011;42162;51.958;5.426;2024-03-08T14:02:59;18.20;;;13.60;;
55762;SDS011;42162;51.958;5.426;2024-03-08T14:05:27;18.00;;;13.95;;
55762;SDS011;42162;51.958;5.426;2024-03-08T14:07:54;19.45;;;13.68;;
55762;SDS011;42162;51.958;5.426;2024-03-08T14:10:22;21.33;;;12.52;;
55762;SDS011;42162;51.958;5.426;2024-03-08T14:12:50;20.02;;;12.88;;
55762;SDS011;42162;51.958;5.426;2024-03-08T14:15:19;22.70;;;14.32;;
55762;SDS011;42162;51.958;5.426;2024-03-08T14:17:54;18.27;;;13.30;;
55762;SDS011;42162;51.958;5.426;2024-03-08T14:20:22;19.13;;;13.95;;
55762;SDS011;42162;51.958;5.426;2024-03-08T14:22:53;17.70;;;12.82;;
55762;SDS011;42162;51.958;5.426;2024-03-08T14:25:23;22.92;;;13.73;;
55762;SDS011;42162;51.958;5.426;2024-03-08T14:27:52;17.38;;;13.13;;
55762;SDS011;42162;51.958;5.426;2024-03-08T14:30:20;21.45;;;14.13;;
55762;SDS011;42162;51.958;5.426;2024-03-08T14:33:05;20.80;;;14.23;;
55762;SDS011;42162;51.958;5.426;2024-03-08T14:35:35;23.27;;;13.27;;
55762;SDS011;42162;51.958;5.426;2024-03-08T14:38:03;22.05;;;14.00;;
55762;SDS011;42162;51.958;5.426;2024-03-08T14:40:31;18.95;;;13.30;;
55762;SDS011;42162;51.958;5.426;2024-03-08T14:42:58;16.15;;;12.18;;